createdAt,value
2019-04-22T00:00:10.780Z,15.90
2019-04-22T00:02:48.432Z,16.10
2019-04-22T00:05:21.469Z,13.47
2019-04-22T00:08:03.500Z,12.87
2019-04-22T00:12:59.771Z,15.03
2019-04-22T00:15:26.110Z,14.77
2019-04-22T00:18:10.826Z,13.20
2019-04-22T00:20:30.823Z,11.17
2019-04-22T00:22:56.742Z,12.07
2019-04-22T00:25:39.248Z,12.10
2019-04-22T00:28:02.453Z,12.97
2019-04-22T00:30:41.913Z,12.83
2019-04-22T00:33:03.380Z,11.57
2019-04-22T00:35:35.522Z,12.57
2019-04-22T00:43:06.452Z,11.83
2019-04-22T00:45:40.503Z,10.30
2019-04-22T00:48:09.093Z,10.03
2019-04-22T00:50:37.471Z,11.50
2019-04-22T00:53:11.084Z,10.27
2019-04-22T00:55:38.128Z,9.97
2019-04-22T00:58:02.846Z,10.57
2019-04-22T01:00:39.282Z,10.37
2019-04-22T01:03:16.034Z,11.37
2019-04-22T01:05:34.448Z,11.00
2019-04-22T01:08:05.625Z,10.03
2019-04-22T01:10:31.837Z,9.13
2019-04-22T01:13:08.156Z,9.33
2019-04-22T01:15:34.336Z,10.87
2019-04-22T01:18:00.309Z,9.20
2019-04-22T01:20:54.573Z,8.23
2019-04-22T01:22:58.930Z,10.33
2019-04-22T01:25:28.107Z,8.77
2019-04-22T01:27:54.434Z,9.47
2019-04-22T01:30:19.745Z,8.77
2019-04-22T01:32:41.852Z,9.23
2019-04-22T01:35:20.827Z,8.23
2019-04-22T01:37:54.676Z,8.67
2019-04-22T01:40:31.283Z,11.20
2019-04-22T01:43:01.813Z,8.33
2019-04-22T01:45:37.967Z,8.03
2019-04-22T01:48:05.251Z,9.13
2019-04-22T01:50:32.136Z,8.17
2019-04-22T01:53:06.251Z,7.33
2019-04-22T01:55:35.744Z,6.83
2019-04-22T01:57:53.557Z,7.80
2019-04-22T02:00:25.561Z,6.30
2019-04-22T02:03:07.269Z,6.80
2019-04-22T02:05:29.028Z,8.60
2019-04-22T02:08:06.753Z,6.60
2019-04-22T02:13:00.148Z,9.53
2019-04-22T02:15:31.191Z,7.13
2019-04-22T02:18:01.602Z,7.97
2019-04-22T02:20:32.667Z,5.77
2019-04-22T02:23:30.602Z,8.40
2019-04-22T02:25:41.397Z,7.50
2019-04-22T02:28:07.833Z,6.47
2019-04-22T02:30:54.298Z,5.90
2019-04-22T02:35:52.226Z,8.20
2019-04-22T02:38:07.779Z,7.53
2019-04-22T02:40:45.557Z,6.33
2019-04-22T02:43:12.652Z,5.20
2019-04-22T02:45:46.920Z,7.93
2019-04-22T02:48:18.383Z,5.33
2019-04-22T02:50:32.525Z,7.03
2019-04-22T02:53:10.453Z,6.10
2019-04-22T02:55:32.625Z,5.50
2019-04-22T02:57:57.760Z,9.27
2019-04-22T03:00:34.589Z,6.67
2019-04-22T03:05:27.387Z,4.80
2019-04-22T03:07:58.966Z,5.73
2019-04-22T03:10:35.355Z,7.00
2019-04-22T03:13:09.052Z,7.43
2019-04-22T03:15:11.821Z,5.50
2019-04-22T03:17:43.829Z,6.13
2019-04-22T03:22:46.988Z,6.63
2019-04-22T03:35:37.342Z,7.13
2019-04-22T03:37:49.325Z,7.03
2019-04-22T03:40:16.429Z,8.97
2019-04-22T03:42:45.786Z,6.27
2019-04-22T03:45:25.861Z,5.80
2019-04-22T03:52:29.366Z,6.17
2019-04-22T03:55:14.929Z,4.57
2019-04-22T04:04:49.445Z,5.03
2019-04-22T04:09:58.246Z,5.77
2019-04-22T04:14:53.737Z,5.47
2019-04-22T04:17:26.225Z,7.00
2019-04-22T04:20:05.657Z,6.53
2019-04-22T04:22:30.280Z,5.20
2019-04-22T04:27:34.646Z,5.00
2019-04-22T04:29:56.116Z,5.37
2019-04-22T04:32:26.979Z,7.00
2019-04-22T04:35:07.274Z,6.37
2019-04-22T04:39:44.071Z,5.67
2019-04-22T04:42:33.332Z,7.60
2019-04-22T04:47:38.920Z,7.90
2019-04-22T04:49:52.326Z,6.47
2019-04-22T04:52:14.559Z,6.30
2019-04-22T04:56:57.108Z,7.40
2019-04-22T05:00:11.129Z,6.63
2019-04-22T05:02:02.277Z,7.60
2019-04-22T05:04:37.200Z,9.03
2019-04-22T05:09:26.380Z,6.80
2019-04-22T05:14:24.765Z,5.73
2019-04-22T05:19:23.942Z,8.20
2019-04-22T05:21:51.166Z,7.33
2019-04-22T05:24:17.972Z,7.37
2019-04-22T05:26:52.700Z,8.13
2019-04-22T05:29:09.665Z,6.70
2019-04-22T05:34:08.229Z,9.00
2019-04-22T05:36:32.733Z,8.00
2019-04-22T05:39:06.291Z,7.40
2019-04-22T05:44:03.255Z,8.17
2019-04-22T05:46:28.706Z,7.73
2019-04-22T05:49:03.258Z,9.23
2019-04-22T05:51:31.498Z,8.07
2019-04-22T05:53:57.443Z,7.00
2019-04-22T05:56:37.240Z,8.03
2019-04-22T05:59:02.449Z,9.63
2019-04-22T06:03:59.041Z,8.53
2019-04-22T06:06:17.905Z,7.57
2019-04-22T06:08:55.809Z,9.07
2019-04-22T06:11:24.457Z,8.47
2019-04-22T06:13:48.247Z,7.87
2019-04-22T06:16:26.435Z,8.33
2019-04-22T06:18:57.656Z,9.13
2019-04-22T06:21:31.103Z,8.57
2019-04-22T06:23:58.792Z,12.30
2019-04-22T06:26:33.426Z,7.97
2019-04-22T06:28:48.121Z,7.83
2019-04-22T06:31:21.046Z,7.77
2019-04-22T06:33:48.109Z,7.47
2019-04-22T06:36:15.776Z,7.23
2019-04-22T06:38:45.900Z,7.53
2019-04-22T06:41:17.170Z,7.40
2019-04-22T06:43:44.107Z,7.13
2019-04-22T06:46:20.811Z,7.83
2019-04-22T06:48:49.143Z,6.00
2019-04-22T06:51:27.003Z,6.50
2019-04-22T06:54:01.768Z,6.20
2019-04-22T06:56:35.310Z,5.30
2019-04-22T06:59:11.943Z,5.50
2019-04-22T07:01:45.773Z,6.87
2019-04-22T07:04:19.739Z,7.53
2019-04-22T07:12:11.965Z,6.00
2019-04-22T07:14:48.454Z,8.30
2019-04-22T07:17:30.964Z,4.53
2019-04-22T07:19:58.406Z,5.37
2019-04-22T07:22:45.806Z,6.03
2019-04-22T07:25:06.541Z,5.37
2019-04-22T07:27:40.426Z,4.33
2019-04-22T07:30:18.293Z,4.87
2019-04-22T07:33:04.824Z,4.23
2019-04-22T07:35:22.766Z,6.93
2019-04-22T07:37:56.453Z,5.90
2019-04-22T07:40:32.502Z,5.57
2019-04-22T07:43:05.034Z,5.43
2019-04-22T07:45:40.840Z,6.60
2019-04-22T07:48:19.034Z,4.30
2019-04-22T07:50:55.802Z,6.57
2019-04-22T07:53:15.783Z,5.60
2019-04-22T07:56:01.404Z,5.03
2019-04-22T07:58:29.011Z,4.97
2019-04-22T08:01:12.266Z,6.17
2019-04-22T08:03:47.134Z,4.03
2019-04-22T08:06:16.830Z,4.70
2019-04-22T08:08:56.595Z,4.23
2019-04-22T08:11:37.452Z,7.50
2019-04-22T08:13:55.240Z,4.77
2019-04-22T08:16:33.916Z,5.80
2019-04-22T08:19:12.251Z,4.50
2019-04-22T08:21:40.825Z,5.07
2019-04-22T08:24:07.843Z,5.33
2019-04-22T08:26:43.858Z,5.47
2019-04-22T08:29:21.660Z,6.70
2019-04-22T08:31:54.790Z,4.63
2019-04-22T08:34:29.958Z,5.07
2019-04-22T08:39:40.691Z,8.00
2019-04-22T08:42:35.205Z,10.10
2019-04-22T08:47:36.044Z,3.33
2019-04-22T08:50:16.479Z,4.73
2019-04-22T08:52:57.617Z,4.93
2019-04-22T08:55:32.929Z,3.77
2019-04-22T08:58:25.103Z,3.43
2019-04-22T09:00:53.718Z,4.37
2019-04-22T09:03:18.865Z,3.37
2019-04-22T09:08:34.163Z,5.83
2019-04-22T09:11:14.834Z,6.17
2019-04-22T09:13:50.725Z,3.20
2019-04-22T09:16:34.746Z,5.23
2019-04-22T09:19:00.862Z,4.80
2019-04-22T09:24:10.586Z,6.33
2019-04-22T09:26:47.583Z,6.23
2019-04-22T09:29:28.022Z,7.47
2019-04-22T09:32:05.612Z,4.87
2019-04-22T09:34:35.391Z,12.07
2019-04-22T09:37:21.094Z,5.63
2019-04-22T09:39:59.668Z,4.97
2019-04-22T09:42:24.623Z,5.80
2019-04-22T09:45:02.438Z,6.60
2019-04-22T09:47:43.173Z,4.37
2019-04-22T09:50:22.329Z,4.43
2019-04-22T09:52:59.165Z,5.27
2019-04-22T09:55:31.205Z,5.27
2019-04-22T09:58:02.810Z,5.23
2019-04-22T10:01:00.524Z,5.60
2019-04-22T10:03:19.825Z,5.43
2019-04-22T10:06:09.953Z,4.97
2019-04-22T10:08:43.620Z,5.33
2019-04-22T10:11:23.782Z,4.67
2019-04-22T10:16:33.851Z,7.00
2019-04-22T10:19:04.190Z,5.87
2019-04-22T10:21:40.570Z,4.43
2019-04-22T10:24:05.913Z,4.77
2019-04-22T10:26:37.265Z,4.10
2019-04-22T10:31:32.781Z,7.13
2019-04-22T10:33:49.671Z,4.40
2019-04-22T10:36:01.533Z,8.27
2019-04-22T10:38:28.617Z,3.37
2019-04-22T10:40:56.477Z,4.17
2019-04-22T10:43:25.306Z,4.67
2019-04-22T10:45:54.340Z,3.93
2019-04-22T10:48:22.020Z,3.43
2019-04-22T10:50:50.505Z,3.37
2019-04-22T10:53:17.782Z,4.03
2019-04-22T10:55:47.734Z,7.83
2019-04-22T10:58:16.836Z,7.47
2019-04-22T11:00:45.335Z,3.70
2019-04-22T11:03:14.459Z,5.90
2019-04-22T11:05:42.069Z,6.37
2019-04-22T11:08:10.338Z,4.17
2019-04-22T11:10:54.221Z,3.67
2019-04-22T11:13:09.407Z,4.73
2019-04-22T11:15:37.643Z,6.00
2019-04-22T11:18:07.322Z,4.37
2019-04-22T11:20:35.772Z,4.40
2019-04-22T11:23:03.040Z,5.00
2019-04-22T11:25:30.007Z,5.90
2019-04-22T11:27:57.881Z,2.30
2019-04-22T11:30:27.954Z,4.67
2019-04-22T11:32:55.967Z,4.80
2019-04-22T11:35:23.771Z,4.50
2019-04-22T11:37:51.004Z,2.83
2019-04-22T11:40:28.544Z,2.33
2019-04-22T11:42:50.297Z,3.97
2019-04-22T11:45:19.272Z,3.13
2019-04-22T11:47:47.491Z,2.60
2019-04-22T11:50:15.804Z,3.57
2019-04-22T11:52:42.746Z,4.23
2019-04-22T11:55:10.881Z,2.67
2019-04-22T11:57:39.187Z,3.43
2019-04-22T12:00:12.491Z,3.27
2019-04-22T12:02:40.936Z,5.40
2019-04-22T12:05:10.312Z,4.47
2019-04-22T12:07:41.049Z,3.10
2019-04-22T12:10:25.370Z,4.67
2019-04-22T12:12:44.391Z,2.90
2019-04-22T12:15:12.695Z,4.07
2019-04-22T12:17:40.433Z,3.70
2019-04-22T12:20:12.549Z,3.60
2019-04-22T12:22:38.882Z,4.30
2019-04-22T12:25:12.439Z,7.93
2019-04-22T12:27:41.058Z,3.50
2019-04-22T12:30:12.650Z,11.93
2019-04-22T12:32:41.173Z,5.80
2019-04-22T12:35:11.551Z,4.63
2019-04-22T12:37:47.135Z,5.67
2019-04-22T12:40:09.071Z,8.07
2019-04-22T12:42:37.298Z,4.30
2019-04-22T12:45:09.819Z,4.63
2019-04-22T12:47:37.831Z,3.93
2019-04-22T12:50:19.703Z,5.83
2019-04-22T12:52:47.876Z,5.20
2019-04-22T12:55:10.011Z,4.70
2019-04-22T12:57:38.901Z,8.33
2019-04-22T13:00:09.202Z,5.73
2019-04-22T13:02:36.736Z,9.60
2019-04-22T13:05:06.049Z,6.07
2019-04-22T13:07:33.658Z,7.10
2019-04-22T13:10:01.447Z,7.90
2019-04-22T13:12:29.038Z,7.07
2019-04-22T13:14:57.214Z,10.73
2019-04-22T13:17:24.991Z,6.83
2019-04-22T13:19:51.940Z,5.13
2019-04-22T13:22:19.061Z,6.53
2019-04-22T13:24:46.067Z,6.83
2019-04-22T13:27:13.050Z,6.67
2019-04-22T13:29:41.215Z,5.07
2019-04-22T13:32:08.977Z,6.20
2019-04-22T13:34:42.316Z,7.20
2019-04-22T13:37:05.102Z,8.87
2019-04-22T13:39:32.239Z,7.67
2019-04-22T13:42:03.553Z,7.40
2019-04-22T13:44:28.127Z,6.70
2019-04-22T13:47:08.236Z,8.80
2019-04-22T13:49:58.995Z,8.37
2019-04-22T13:52:36.036Z,7.87
2019-04-22T13:57:14.678Z,7.97
2019-04-22T13:59:28.133Z,7.53
2019-04-22T14:01:50.675Z,8.13
2019-04-22T14:04:20.594Z,9.30
2019-04-22T14:06:49.009Z,9.20
2019-04-22T14:09:17.186Z,8.67
2019-04-22T14:11:50.508Z,8.03
2019-04-22T14:14:15.529Z,8.17
2019-04-22T14:16:42.747Z,11.10
2019-04-22T14:19:20.221Z,8.90
2019-04-22T14:21:47.527Z,10.13
2019-04-22T14:24:15.810Z,10.33
2019-04-22T14:26:55.765Z,8.20
2019-04-22T14:29:11.611Z,9.97
2019-04-22T14:31:38.456Z,7.73
2019-04-22T14:34:07.729Z,8.00
2019-04-22T14:36:35.279Z,9.30
2019-04-22T14:39:08.024Z,10.80
2019-04-22T14:41:49.034Z,11.20
2019-04-22T14:47:02.203Z,9.13
2019-04-22T14:49:31.527Z,9.27
2019-04-22T14:51:56.053Z,8.37
2019-04-22T14:54:21.152Z,11.10
2019-04-22T14:56:31.602Z,9.33
2019-04-22T14:58:58.824Z,9.33
2019-04-22T15:01:26.666Z,9.27
2019-04-22T15:03:54.525Z,15.63
2019-04-22T15:06:22.325Z,9.53
2019-04-22T15:08:49.262Z,11.70
2019-04-22T15:11:17.177Z,8.00
2019-04-22T15:13:45.245Z,9.57
2019-04-22T15:16:14.285Z,9.07
2019-04-22T15:18:44.060Z,12.83
2019-04-22T15:21:12.809Z,10.80
2019-04-22T15:23:40.465Z,11.03
2019-04-22T15:26:08.695Z,6.20
2019-04-22T15:28:35.568Z,10.87
2019-04-22T15:31:03.618Z,11.57
2019-04-22T15:33:30.885Z,9.33
2019-04-22T15:35:59.069Z,8.73
2019-04-22T15:38:26.237Z,9.77
2019-04-22T15:40:54.545Z,13.20
2019-04-22T15:43:22.759Z,9.67
2019-04-22T15:45:50.864Z,9.27
2019-04-22T15:49:15.971Z,11.00
2019-04-22T15:51:43.060Z,13.83
2019-04-22T15:54:09.853Z,11.43
2019-04-22T15:56:37.030Z,10.03
2019-04-22T15:59:17.215Z,13.10
2019-04-22T16:01:37.232Z,9.37
2019-04-22T16:04:02.849Z,12.73
2019-04-22T16:06:30.182Z,11.47
2019-04-22T16:08:59.930Z,8.83
2019-04-22T16:11:27.671Z,12.27
2019-04-22T16:13:54.809Z,10.40
2019-04-22T16:16:22.916Z,9.80
2019-04-22T16:18:50.686Z,13.30
2019-04-22T16:21:31.522Z,9.20
2019-04-22T16:23:50.130Z,10.70
2019-04-22T16:26:20.206Z,11.20
2019-04-22T16:28:47.443Z,12.03
2019-04-22T16:31:15.396Z,10.83
2019-04-22T16:33:45.710Z,11.73
2019-04-22T16:36:12.989Z,12.33
2019-04-22T16:38:40.739Z,10.37
2019-04-22T16:41:08.531Z,10.80
2019-04-22T16:43:36.665Z,9.93
2019-04-22T16:46:03.816Z,11.73
2019-04-22T16:48:31.511Z,10.13
2019-04-22T16:50:59.940Z,10.00
2019-04-22T16:53:27.282Z,10.07
2019-04-22T16:55:54.899Z,9.53
2019-04-22T16:58:23.125Z,13.20
2019-04-22T17:00:50.735Z,9.47
2019-04-22T17:03:22.624Z,12.43
2019-04-22T17:05:51.798Z,8.77
2019-04-22T17:08:20.814Z,13.83
2019-04-22T17:10:49.507Z,12.37
2019-04-22T17:13:19.683Z,10.53
2019-04-22T17:15:45.248Z,14.10
2019-04-22T17:18:15.184Z,15.23
2019-04-22T17:20:42.570Z,10.03
2019-04-22T17:23:09.666Z,13.27
2019-04-22T17:25:36.382Z,11.47
2019-04-22T17:28:03.682Z,9.80
2019-04-22T17:30:30.991Z,12.77
2019-04-22T17:32:59.020Z,11.90
2019-04-22T17:35:26.298Z,12.53
2019-04-22T17:38:03.087Z,13.67
2019-04-22T17:40:38.640Z,12.90
2019-04-22T17:43:26.331Z,11.30
2019-04-22T17:45:45.006Z,9.97
2019-04-22T17:48:15.831Z,10.70
2019-04-22T17:50:46.801Z,10.97
2019-04-22T17:53:23.073Z,9.57
2019-04-22T17:55:49.479Z,11.60
2019-04-22T17:58:14.448Z,9.30
2019-04-22T18:00:36.332Z,10.77
2019-04-22T18:03:04.275Z,7.90
2019-04-22T18:05:24.095Z,8.80
2019-04-22T18:08:10.094Z,13.63
2019-04-22T18:10:35.969Z,9.47
2019-04-22T18:13:14.060Z,9.30
2019-04-22T18:15:40.952Z,15.87
2019-04-22T18:18:06.479Z,11.13
2019-04-22T18:20:30.800Z,10.00
2019-04-22T18:22:54.643Z,9.23
2019-04-22T18:25:24.587Z,12.67
2019-04-22T18:28:07.442Z,16.40
2019-04-22T18:30:20.410Z,11.07
2019-04-22T18:32:55.616Z,10.80
2019-04-22T18:35:26.464Z,8.23
2019-04-22T18:38:07.674Z,10.87
2019-04-22T18:40:37.256Z,9.27
2019-04-22T18:43:10.221Z,10.97
2019-04-22T18:46:00.196Z,12.43
2019-04-22T18:48:03.954Z,10.73
2019-04-22T18:50:52.942Z,10.27
2019-04-22T18:53:25.155Z,9.47
2019-04-22T18:55:38.781Z,8.57
2019-04-22T18:58:08.932Z,8.70
2019-04-22T19:00:31.680Z,11.27
2019-04-22T19:03:05.314Z,9.93
2019-04-22T19:05:45.070Z,10.33
2019-04-22T19:08:23.076Z,13.00
2019-04-22T19:13:45.247Z,9.67
2019-04-22T19:15:54.084Z,13.00
2019-04-22T19:18:24.532Z,11.63
2019-04-22T19:20:51.863Z,9.23
2019-04-22T19:23:17.477Z,8.73
2019-04-22T19:25:40.863Z,11.63
2019-04-22T19:28:28.071Z,11.00
2019-04-22T19:30:50.841Z,12.90
2019-04-22T19:33:18.970Z,14.53
2019-04-22T19:35:40.092Z,13.60
2019-04-22T19:38:06.764Z,15.20
2019-04-22T19:40:55.389Z,13.93
2019-04-22T19:43:20.469Z,12.87
2019-04-22T19:45:42.991Z,11.10
2019-04-22T19:48:23.339Z,12.30
2019-04-22T19:50:44.628Z,12.83
2019-04-22T19:53:10.648Z,14.17
2019-04-22T19:55:43.689Z,13.50
2019-04-22T19:58:09.299Z,14.97
2019-04-22T20:00:38.662Z,12.17
2019-04-22T20:03:20.423Z,15.63
2019-04-22T20:05:47.666Z,17.23
2019-04-22T20:08:14.273Z,14.00
2019-04-22T20:10:44.084Z,14.37
2019-04-22T20:13:22.578Z,15.10
2019-04-22T20:15:37.447Z,15.20
2019-04-22T20:18:29.691Z,16.63
2019-04-22T20:20:49.314Z,12.10
2019-04-22T20:23:08.276Z,13.97
2019-04-22T20:25:38.953Z,12.03
2019-04-22T20:28:17.830Z,15.40
2019-04-22T20:30:41.047Z,17.77
2019-04-22T20:33:06.678Z,13.87
2019-04-22T20:35:38.988Z,15.40
2019-04-22T20:38:02.922Z,15.37
2019-04-22T20:40:34.680Z,12.53
2019-04-22T20:43:10.489Z,13.47
2019-04-22T20:45:34.893Z,15.53
2019-04-22T20:47:50.987Z,14.97
2019-04-22T20:50:29.392Z,15.70
2019-04-22T20:53:06.933Z,15.83
2019-04-22T20:55:19.155Z,13.83
2019-04-22T20:58:00.728Z,13.90
2019-04-22T21:00:22.428Z,14.07
2019-04-22T21:02:48.968Z,13.97
2019-04-22T21:05:22.112Z,14.40
2019-04-22T21:07:59.512Z,14.63
2019-04-22T21:10:19.567Z,18.33
2019-04-22T21:12:48.153Z,20.03
2019-04-22T21:15:31.318Z,15.40
2019-04-22T21:17:51.282Z,13.57
2019-04-22T21:20:34.530Z,15.73
2019-04-22T21:22:56.254Z,14.90
2019-04-22T21:25:19.599Z,12.00
2019-04-22T21:27:58.233Z,13.13
2019-04-22T21:30:26.289Z,11.10
2019-04-22T21:32:54.826Z,14.13
2019-04-22T21:35:44.075Z,9.27
2019-04-22T21:37:57.981Z,12.13
2019-04-22T21:40:32.286Z,9.97
2019-04-22T21:42:59.862Z,13.50
2019-04-22T21:45:22.757Z,11.63
2019-04-22T21:48:07.019Z,20.57
2019-04-22T21:50:48.006Z,12.13
2019-04-22T21:53:02.265Z,12.77
2019-04-22T21:55:31.715Z,11.07
2019-04-22T21:58:02.626Z,11.07
2019-04-22T22:03:10.888Z,11.97
2019-04-22T22:05:28.928Z,13.53
2019-04-22T22:07:48.101Z,11.03
2019-04-22T22:10:34.456Z,10.30
2019-04-22T22:13:00.811Z,12.87
2019-04-22T22:15:28.689Z,12.03
2019-04-22T22:17:58.644Z,8.80
2019-04-22T22:20:22.757Z,10.83
2019-04-22T22:22:59.946Z,11.07
2019-04-22T22:25:23.667Z,11.40
2019-04-22T22:27:58.666Z,11.17
2019-04-22T22:30:44.671Z,9.87
2019-04-22T22:33:01.295Z,11.20
2019-04-22T22:35:27.871Z,10.80
2019-04-22T22:37:57.632Z,11.27
2019-04-22T22:40:11.976Z,15.10
2019-04-22T22:42:41.558Z,15.07
2019-04-22T22:45:17.597Z,13.93
2019-04-22T22:48:03.740Z,11.83
2019-04-22T22:50:26.008Z,10.13
2019-04-22T22:53:10.870Z,8.90
2019-04-22T22:55:31.419Z,10.83
2019-04-22T22:57:58.357Z,10.93
2019-04-22T23:00:24.503Z,12.07
2019-04-22T23:03:27.509Z,9.80
2019-04-22T23:05:32.642Z,11.33
2019-04-22T23:08:05.938Z,10.47
2019-04-22T23:10:34.142Z,11.47
2019-04-22T23:13:00.424Z,10.80
2019-04-22T23:15:26.110Z,14.17
2019-04-22T23:17:39.228Z,11.83
2019-04-22T23:20:07.490Z,9.43
2019-04-22T23:22:51.060Z,10.27
2019-04-22T23:26:17.137Z,11.03
2019-04-22T23:28:29.791Z,9.07
2019-04-22T23:30:49.758Z,7.97
2019-04-22T23:33:36.372Z,12.53
2019-04-22T23:35:56.329Z,8.07
2019-04-22T23:38:31.990Z,9.53
2019-04-22T23:41:00.129Z,9.70
2019-04-22T23:43:35.036Z,10.17
2019-04-22T23:46:02.290Z,8.83
2019-04-22T23:48:23.534Z,10.47
2019-04-22T23:50:57.311Z,9.13
2019-04-22T23:53:36.428Z,13.23
2019-04-22T23:56:00.205Z,9.60
2019-04-22T23:58:45.958Z,9.20
